Time;durP1;ratioP1;P1;durP2;ratioP2;P2;SDS_P1;SDS_P2;PMS_P1;PMS_P2;Temp;Humidity;BMP_temperature;BMP_pressure;BME280_temperature;BME280_humidity;BME280_pressure;Samples;Min_cycle;Max_cycle;Signal;HPM_P1;HPM_P2
2023/04/14 00:00:11;;;;;;;4.40;4.10;;;;;;;14.20;62.21;98644.16;5073143;28;20746;-69
2023/04/14 00:02:38;;;;;;;4.60;4.10;;;;;;;14.20;62.02;98644.16;5073601;28;20203;-67
2023/04/14 00:05:07;;;;;;;4.70;4.30;;;;;;;14.14;62.45;98641.66;5073066;28;20232;-69
2023/04/14 00:07:35;;;;;;;4.80;4.50;;;;;;;14.06;63.36;98642.84;5073974;28;20226;-69
2023/04/14 00:10:02;;;;;;;5.13;4.67;;;;;;;14.00;63.89;98650.97;5072167;28;20196;-69
2023/04/14 00:12:37;;;;;;;5.17;4.80;;;;;;;13.82;64.06;98627.97;5073273;28;20192;-68
2023/04/14 00:15:05;;;;;;;5.60;5.20;;;;;;;13.41;66.58;98648.72;5073835;28;20191;-68
2023/04/14 00:17:34;;;;;;;6.27;5.77;;;;;;;13.49;66.38;98649.16;5073199;28;20196;-68
2023/04/14 00:20:01;;;;;;;11.40;6.23;;;;;;;12.88;69.88;98642.69;5073256;28;20200;-68
2023/04/14 00:22:30;;;;;;;7.27;6.43;;;;;;;13.04;69.70;98653.50;5072997;28;20198;-68
2023/04/14 00:25:06;;;;;;;6.70;6.20;;;;;;;13.05;69.79;98655.13;5072911;28;20235;-68
2023/04/14 00:27:33;;;;;;;7.03;6.47;;;;;;;13.03;69.91;98641.19;5073963;28;20191;-68
2023/04/14 00:30:00;;;;;;;7.10;6.67;;;;;;;13.15;69.44;98647.34;5071591;28;20295;-69
2023/04/14 00:32:29;;;;;;;10.17;6.27;;;;;;;13.20;69.03;98665.31;5072774;28;20195;-68
2023/04/14 00:34:56;;;;;;;9.50;6.57;;;;;;;12.96;69.88;98656.47;5072448;28;20258;-68
2023/04/14 00:37:23;;;;;;;6.30;5.73;;;;;;;12.96;69.55;98648.47;5072905;28;20288;-68
2023/04/14 00:39:51;;;;;;;6.87;6.33;;;;;;;13.09;69.08;98656.28;5071111;28;20649;-68
2023/04/14 00:42:20;;;;;;;6.33;5.87;;;;;;;13.03;69.35;98657.19;5072678;28;20196;-68
2023/04/14 00:44:47;;;;;;;7.63;5.83;;;;;;;12.95;68.93;98662.84;5072644;28;20196;-68
2023/04/14 00:47:16;;;;;;;5.77;5.30;;;;;;;12.95;69.33;98654.84;5072360;28;20644;-68
2023/04/14 00:49:42;;;;;;;5.63;5.23;;;;;;;12.97;68.75;98660.78;5072781;28;20235;-68
2023/04/14 00:52:10;;;;;;;5.40;5.10;;;;;;;13.00;68.16;98667.50;5071187;28;20658;-68
2023/04/14 00:54:37;;;;;;;5.57;5.00;;;;;;;13.03;68.11;98664.41;5072363;28;20203;-68
2023/04/14 00:57:07;;;;;;;5.07;4.67;;;;;;;13.01;67.77;98667.28;5071439;28;20191;-68
2023/04/14 00:59:38;;;;;;;5.43;4.30;;;;;;;12.98;67.57;98659.75;5072890;28;20254;-68
2023/04/14 01:02:04;;;;;;;4.90;4.47;;;;;;;12.84;67.99;98661.00;5072219;28;20191;-68
2023/04/14 01:04:32;;;;;;;5.10;4.70;;;;;;;12.82;67.68;98660.41;5071302;28;20249;-68
2023/04/14 01:06:59;;;;;;;7.17;4.67;;;;;;;12.89;67.77;98660.28;5054417;28;20242;-68
2023/04/14 01:09:28;;;;;;;5.23;4.80;;;;;;;12.82;67.30;98654.28;5072401;28;20550;-68
2023/04/14 01:12:07;;;;;;;4.70;4.40;;;;;;;12.75;67.83;98665.03;5071261;28;20192;-68
2023/04/14 01:14:43;;;;;;;4.60;4.30;;;;;;;12.70;67.60;98662.22;5071934;28;20222;-68
2023/04/14 01:17:19;;;;;;;4.73;4.40;;;;;;;12.72;67.95;98660.16;5072669;28;20258;-68
2023/04/14 01:20:09;;;;;;;5.60;4.50;;;;;;;12.69;67.72;98659.78;5072161;28;20194;-68
2023/04/14 01:22:46;;;;;;;6.10;4.50;;;;;;;12.71;67.51;98663.88;5072420;28;20656;-68
2023/04/14 01:25:31;;;;;;;5.00;4.57;;;;;;;12.69;67.56;98660.63;5072240;28;20209;-68
2023/04/14 01:28:13;;;;;;;5.43;4.90;;;;;;;12.76;67.53;98663.16;5071518;28;20676;-68
2023/04/14 01:31:03;;;;;;;4.33;4.03;;;;;;;12.49;68.07;98649.47;5070597;28;20210;-68
2023/04/14 01:33:38;;;;;;;4.60;4.23;;;;;;;12.61;67.79;98658.28;5072066;28;20204;-68
2023/04/14 01:36:09;;;;;;;4.97;4.20;;;;;;;12.67;67.66;98657.38;5073219;28;20228;-68
2023/04/14 01:38:39;;;;;;;6.37;4.47;;;;;;;12.70;67.38;98651.56;5072204;28;20207;-68
2023/04/14 01:41:12;;;;;;;4.67;4.27;;;;;;;12.52;67.66;98646.34;5071110;28;20238;-68
2023/04/14 01:43:44;;;;;;;5.20;4.80;;;;;;;12.57;67.69;98641.13;5072204;28;20677;-68
2023/04/14 01:46:14;;;;;;;4.70;4.30;;;;;;;12.52;67.92;98653.50;5071359;28;20234;-68
2023/04/14 01:48:42;;;;;;;4.60;4.33;;;;;;;12.63;67.36;98642.91;5072076;28;20207;-68
2023/04/14 01:51:11;;;;;;;4.43;4.03;;;;;;;12.71;67.00;98649.72;5071782;28;20245;-68
2023/04/14 01:53:44;;;;;;;9.67;3.70;;;;;;;12.72;66.99;98644.19;5071253;28;20195;-68
2023/04/14 01:56:14;;;;;;;5.37;4.00;;;;;;;12.76;66.93;98645.34;5072067;28;20254;-68
2023/04/14 01:58:44;;;;;;;4.50;4.20;;;;;;;12.80;66.58;98646.50;5070540;28;20257;-68
2023/04/14 02:01:18;;;;;;;6.60;4.60;;;;;;;12.58;67.33;98642.75;5072105;28;20203;-68
2023/04/14 02:03:48;;;;;;;5.17;4.67;;;;;;;12.66;67.09;98645.06;5071281;28;20248;-68
2023/04/14 02:06:17;;;;;;;5.20;4.43;;;;;;;12.51;67.35;98636.75;5071516;28;20251;-68
2023/04/14 02:08:45;;;;;;;5.03;4.63;;;;;;;12.53;67.55;98644.50;5071533;28;20285;-68
2023/04/14 02:11:14;;;;;;;4.93;4.50;;;;;;;12.61;66.85;98642.31;5072796;28;20248;-68
2023/04/14 02:13:44;;;;;;;5.30;5.00;;;;;;;12.61;66.78;98636.16;5071724;28;20198;-68
2023/04/14 02:16:12;;;;;;;5.90;5.33;;;;;;;12.56;66.51;98628.88;5071257;28;20202;-68
2023/04/14 02:18:41;;;;;;;4.77;4.37;;;;;;;12.26;66.64;98585.50;5070504;28;20230;-68
2023/04/14 02:21:11;;;;;;;4.80;4.50;;;;;;;12.60;66.89;98637.19;5071554;28;20199;-68
2023/04/14 02:23:42;;;;;;;4.40;4.00;;;;;;;12.46;66.78;98633.91;5071403;28;20670;-68
2023/04/14 02:26:14;;;;;;;4.90;4.50;;;;;;;12.48;66.75;98641.69;5072044;28;20230;-68
2023/04/14 02:28:49;;;;;;;5.07;4.77;;;;;;;12.27;67.43;98634.22;5072263;28;20231;-68
2023/04/14 02:31:22;;;;;;;4.57;4.27;;;;;;;12.41;67.13;98641.78;5071707;28;20199;-68
2023/04/14 02:33:53;;;;;;;4.93;4.27;;;;;;;12.52;66.78;98638.34;5072079;28;20223;-68
2023/04/14 02:36:27;;;;;;;6.37;4.07;;;;;;;12.62;66.51;98643.91;5070394;28;20231;-68
2023/04/14 02:38:57;;;;;;;4.63;4.00;;;;;;;12.69;66.31;98641.97;5071286;28;20188;-68
2023/04/14 02:41:28;;;;;;;4.77;4.47;;;;;;;12.47;66.64;98637.41;5071070;28;20561;-68
2023/04/14 02:44:05;;;;;;;4.63;4.33;;;;;;;12.54;66.62;98640.78;5071547;28;20197;-68
2023/04/14 02:46:37;;;;;;;4.77;4.37;;;;;;;12.40;66.48;98636.69;5070180;28;20246;-68
2023/04/14 02:49:06;;;;;;;7.23;4.90;;;;;;;12.55;66.28;98637.06;5071482;28;20192;-68
2023/04/14 02:51:37;;;;;;;4.90;4.50;;;;;;;12.62;66.39;98649.25;5053590;28;20192;-68
2023/04/14 02:54:08;;;;;;;5.33;4.93;;;;;;;12.65;65.94;98643.47;5071492;28;20618;-68
2023/04/14 02:56:35;;;;;;;4.47;4.07;;;;;;;12.68;65.83;98647.53;5069949;28;20188;-68
2023/04/14 02:59:06;;;;;;;5.47;5.00;;;;;;;12.67;65.59;98646.72;5071085;28;20286;-68
2023/04/14 03:01:33;;;;;;;4.87;4.50;;;;;;;12.69;65.92;98655.28;5071214;28;20722;-68
2023/04/14 03:04:01;;;;;;;5.10;4.60;;;;;;;12.60;66.02;98659.31;5072266;28;20688;-68
2023/04/14 03:06:30;;;;;;;6.77;4.67;;;;;;;12.50;66.37;98661.72;5074286;28;20228;-68
2023/04/14 03:08:59;;;;;;;4.47;4.10;;;;;;;12.50;66.61;98658.28;5074535;28;20199;-68
2023/04/14 03:11:28;;;;;;;5.73;4.20;;;;;;;12.58;66.03;98664.06;5074754;28;20257;-67
2023/04/14 03:14:02;;;;;;;4.57;4.20;;;;;;;12.59;65.99;98663.03;5074354;28;20211;-67
2023/04/14 03:16:33;;;;;;;4.50;4.20;;;;;;;12.56;66.15;98663.50;5073986;28;20283;-67
2023/04/14 03:19:06;;;;;;;4.60;4.40;;;;;;;12.57;66.06;98666.97;5072679;28;20192;-67
2023/04/14 03:21:37;;;;;;;5.33;4.60;;;;;;;12.62;65.62;98670.56;5075053;28;20180;-67
2023/04/14 03:24:08;;;;;;;4.93;4.53;;;;;;;12.59;66.16;98660.38;5073573;28;20203;-67
2023/04/14 03:26:39;;;;;;;4.90;4.50;;;;;;;12.37;66.07;98651.28;5075070;28;20200;-67
2023/04/14 03:29:10;;;;;;;4.70;4.37;;;;;;;12.29;66.33;98662.25;5074331;28;20211;-68
2023/04/14 03:31:39;;;;;;;4.77;4.37;;;;;;;12.19;67.55;98667.31;5073146;28;20250;-67
2023/04/14 03:34:09;;;;;;;5.40;4.90;;;;;;;11.98;68.51;98661.69;5074051;28;20672;-67
2023/04/14 03:36:40;;;;;;;7.23;5.30;;;;;;;11.82;68.76;98656.97;5073695;28;20230;-67
2023/04/14 03:39:13;;;;;;;4.93;4.43;;;;;;;11.92;68.97;98663.38;5074254;28;20249;-67
2023/04/14 03:41:46;;;;;;;7.03;4.83;;;;;;;11.83;68.61;98658.59;5074505;28;20191;-67
2023/04/14 03:44:15;;;;;;;5.80;5.40;;;;;;;11.91;68.85;98667.09;5073153;28;20201;-67
2023/04/14 03:46:42;;;;;;;5.20;4.90;;;;;;;11.99;68.60;98658.78;5074301;28;20235;-67
2023/04/14 03:49:15;;;;;;;10.33;4.67;;;;;;;11.96;68.29;98656.56;5074616;28;20198;-67
2023/04/14 03:51:50;;;;;;;6.77;4.60;;;;;;;11.83;68.72;98662.06;5074003;28;20203;-67
2023/04/14 03:54:21;;;;;;;6.63;4.63;;;;;;;11.93;68.70;98672.19;5073489;28;20289;-67
2023/04/14 03:56:54;;;;;;;8.93;4.97;;;;;;;11.90;67.91;98668.13;5074061;28;20208;-67
2023/04/14 03:59:25;;;;;;;5.53;4.70;;;;;;;11.98;68.23;98683.78;5072902;28;20198;-67
2023/04/14 04:01:55;;;;;;;5.57;4.93;;;;;;;12.03;68.07;98689.25;5073384;28;20200;-67
2023/04/14 04:04:23;;;;;;;5.40;5.00;;;;;;;12.09;67.88;98685.66;5072957;28;20191;-68
2023/04/14 04:06:51;;;;;;;6.13;5.53;;;;;;;12.03;67.97;98707.06;5073677;28;20254;-67
2023/04/14 04:09:23;;;;;;;5.80;5.17;;;;;;;12.16;67.70;98698.91;5073319;28;20199;-68
2023/04/14 04:11:53;;;;;;;5.50;5.00;;;;;;;12.02;67.94;98690.28;5072648;28;20767;-67
2023/04/14 04:14:21;;;;;;;4.90;4.20;;;;;;;12.22;67.47;98696.16;5073220;28;20195;-67
2023/04/14 04:16:50;;;;;;;5.20;4.67;;;;;;;12.23;67.28;98675.66;5072938;28;20552;-67
2023/04/14 04:19:21;;;;;;;5.10;4.40;;;;;;;12.39;66.63;98689.16;5073991;28;20253;-67
2023/04/14 04:21:49;;;;;;;5.20;4.67;;;;;;;12.49;66.12;98675.28;5072899;28;20195;-67
2023/04/14 04:24:23;;;;;;;4.57;4.17;;;;;;;12.69;65.92;98689.94;5073542;28;20196;-67
2023/04/14 04:26:51;;;;;;;4.80;4.20;;;;;;;12.93;63.78;98685.44;5072973;28;20223;-68
2023/04/14 04:29:19;;;;;;;4.93;4.53;;;;;;;13.23;63.80;98692.31;5073377;28;20645;-68
2023/04/14 04:31:47;;;;;;;4.17;3.83;;;;;;;13.83;61.88;98685.63;5071516;28;20241;-68
2023/04/14 04:34:15;;;;;;;4.60;4.20;;;;;;;14.40;58.60;98703.34;5073209;28;20200;-68
2023/04/14 04:36:44;;;;;;;4.43;4.03;;;;;;;14.91;57.81;98700.47;5073637;28;20278;-68
2023/04/14 04:39:11;;;;;;;9.17;3.77;;;;;;;15.50;55.73;98696.31;5072680;28;20192;-68
2023/04/14 04:41:41;;;;;;;4.20;3.77;;;;;;;15.97;53.62;98704.72;5072695;28;20672;-68
2023/04/14 04:44:10;;;;;;;4.43;3.83;;;;;;;16.37;50.75;98710.53;5072908;28;20658;-69
2023/04/14 04:46:48;;;;;;;5.00;4.50;;;;;;;16.46;51.66;98703.69;5072479;28;20762;-69
2023/04/14 04:49:15;;;;;;;5.13;4.70;;;;;;;16.65;50.07;98696.91;5072350;28;20718;-68
2023/04/14 04:51:45;;;;;;;7.67;5.20;;;;;;;17.02;49.13;98708.50;5069795;28;20192;-69
2023/04/14 04:54:12;;;;;;;4.50;4.07;;;;;;;17.12;48.32;98703.22;5072536;28;20204;-69
2023/04/14 04:56:41;;;;;;;4.30;3.93;;;;;;;17.00;49.11;98699.91;5072880;28;20574;-68
2023/04/14 04:59:08;;;;;;;6.40;4.03;;;;;;;16.84;48.82;98690.09;5072959;28;20196;-68
2023/04/14 05:01:35;;;;;;;5.27;4.23;;;;;;;16.19;51.62;98681.38;5072430;28;20220;-68
2023/04/14 05:04:02;;;;;;;5.53;4.47;;;;;;;16.31;50.78;98682.03;5072712;28;20200;-69
2023/04/14 05:06:29;;;;;;;4.67;4.37;;;;;;;16.35;51.28;98683.16;5072449;28;20196;-69
2023/04/14 05:08:57;;;;;;;4.33;4.03;;;;;;;16.28;51.80;98677.19;5072377;28;20196;-68
2023/04/14 05:11:25;;;;;;;6.57;4.40;;;;;;;16.45;51.08;98680.63;5072436;28;20200;-69
2023/04/14 05:13:55;;;;;;;5.00;4.03;;;;;;;16.59;50.83;98684.50;5072067;28;20196;-68
2023/04/14 05:16:21;;;;;;;5.10;4.40;;;;;;;16.15;51.38;98680.25;5072428;28;20628;-69
2023/04/14 05:18:48;;;;;;;5.53;4.97;;;;;;;15.98;52.18;98674.19;5072455;28;20196;-69
2023/04/14 05:21:16;;;;;;;5.07;4.73;;;;;;;15.53;53.92;98661.84;5072349;28;20215;-69
2023/04/14 05:23:44;;;;;;;7.27;5.50;;;;;;;15.29;54.93;98662.28;5072737;28;20207;-68
2023/04/14 05:26:12;;;;;;;7.17;5.10;;;;;;;15.02;56.05;98664.81;5072090;28;20196;-69
2023/04/14 05:28:40;;;;;;;9.60;6.30;;;;;;;14.64;58.36;98667.44;5070117;28;20223;-68
2023/04/14 05:31:09;;;;;;;4.70;4.30;;;;;;;14.72;58.02;98674.22;5071808;28;20188;-68
2023/04/14 05:33:35;;;;;;;5.50;5.00;;;;;;;14.75;58.41;98671.88;5072164;28;20208;-68
2023/04/14 05:36:03;;;;;;;5.43;4.53;;;;;;;14.67;58.22;98672.25;5072418;28;20233;-68
2023/04/14 05:38:30;;;;;;;4.93;4.53;;;;;;;14.37;59.91;98677.09;5071893;28;20196;-68
2023/04/14 05:41:00;;;;;;;5.30;4.20;;;;;;;14.01;61.04;98663.28;5071724;28;20206;-68
2023/04/14 05:43:28;;;;;;;8.50;4.50;;;;;;;14.14;61.48;98671.81;5072243;28;20195;-68
2023/04/14 05:45:57;;;;;;;6.23;4.87;;;;;;;14.21;60.93;98669.06;5071390;28;20196;-68
2023/04/14 05:48:27;;;;;;;4.80;4.43;;;;;;;14.22;61.34;98668.78;5072855;28;20314;-68
2023/04/14 05:50:56;;;;;;;4.87;4.50;;;;;;;14.10;62.13;98657.31;5071406;28;20199;-68
2023/04/14 05:53:26;;;;;;;5.13;4.73;;;;;;;13.99;62.95;98647.50;5071580;28;20249;-68
2023/04/14 05:55:55;;;;;;;5.47;4.77;;;;;;;14.03;63.15;98648.66;5070717;28;20180;-68
2023/04/14 05:58:25;;;;;;;7.57;6.83;;;;;;;13.56;64.94;98636.50;5071867;28;20206;-68
2023/04/14 06:00:53;;;;;;;4.80;4.40;;;;;;;13.70;64.89;98632.53;5072170;28;20662;-68
2023/04/14 06:03:20;;;;;;;4.83;4.53;;;;;;;13.79;64.24;98636.44;5070180;28;20196;-68
2023/04/14 06:05:51;;;;;;;10.77;9.53;;;;;;;13.88;64.15;98635.00;5071825;28;20192;-68
2023/04/14 06:08:19;;;;;;;4.93;4.53;;;;;;;13.51;64.47;98588.38;5071253;28;20234;-68
2023/04/14 06:10:47;;;;;;;5.97;5.27;;;;;;;13.95;64.03;98651.69;5070265;28;20192;-68
2023/04/14 06:13:15;;;;;;;7.37;4.53;;;;;;;13.98;63.81;98648.56;5071745;28;20195;-68
2023/04/14 06:15:42;;;;;;;4.37;4.00;;;;;;;13.93;64.12;98632.44;5071292;28;20188;-68
2023/04/14 06:18:08;;;;;;;20.50;13.67;;;;;;;14.01;63.91;98653.41;5070419;28;20192;-69
2023/04/14 06:20:35;;;;;;;5.60;5.30;;;;;;;14.16;63.60;98653.69;5071874;28;20203;-68
2023/04/14 06:23:06;;;;;;;6.90;4.53;;;;;;;14.16;63.78;98644.88;5070254;28;20200;-69
2023/04/14 06:25:34;;;;;;;8.90;6.33;;;;;;;14.25;63.43;98624.78;5071266;28;20188;-68
2023/04/14 06:28:03;;;;;;;7.67;5.97;;;;;;;14.09;64.63;98615.63;5071392;28;20223;-68
2023/04/14 06:30:31;;;;;;;10.50;7.20;;;;;;;14.11;64.21;98613.56;5071313;28;20192;-68
2023/04/14 06:33:02;;;;;;;6.23;5.63;;;;;;;14.32;64.22;98626.25;5071438;28;20196;-68
2023/04/14 06:35:30;;;;;;;9.43;5.80;;;;;;;14.50;63.37;98631.34;5070183;28;20231;-68
2023/04/14 06:37:58;;;;;;;9.30;6.47;;;;;;;14.65;63.12;98636.16;5070027;28;20192;-69
2023/04/14 06:40:27;;;;;;;7.87;7.03;;;;;;;14.79;63.04;98635.56;5074616;28;20200;-68
2023/04/14 06:42:53;;;;;;;9.17;6.13;;;;;;;15.01;62.04;98635.66;5074028;28;20200;-68
2023/04/14 06:45:22;;;;;;;6.70;6.03;;;;;;;15.22;61.91;98649.09;5075059;28;20192;-68
2023/04/14 06:47:50;;;;;;;6.57;5.97;;;;;;;15.52;60.14;98660.22;5075579;28;20220;-69
2023/04/14 06:50:18;;;;;;;6.43;4.90;;;;;;;15.69;59.42;98636.88;5074837;28;20204;-67
2023/04/14 06:52:46;;;;;;;6.00;5.40;;;;;;;15.89;58.83;98634.44;5074453;28;20203;-68
2023/04/14 06:55:13;;;;;;;6.07;5.67;;;;;;;15.81;58.87;98632.22;5074803;28;20273;-67
2023/04/14 06:57:41;;;;;;;11.07;5.90;;;;;;;15.88;58.53;98631.22;5075044;28;20257;-68
2023/04/14 07:00:10;;;;;;;6.00;5.50;;;;;;;16.09;58.52;98623.13;5075132;28;20196;-68
2023/04/14 07:02:38;;;;;;;7.40;6.00;;;;;;;16.30;57.79;98618.78;5075351;28;20223;-68
2023/04/14 07:05:06;;;;;;;7.07;5.70;;;;;;;16.51;57.19;98608.03;5074344;28;20632;-68
2023/04/14 07:07:35;;;;;;;8.83;6.10;;;;;;;16.73;55.85;98613.28;5073400;28;20223;-68
2023/04/14 07:10:04;;;;;;;5.43;5.03;;;;;;;16.73;55.85;98618.66;5075541;28;20196;-68
2023/04/14 07:12:33;;;;;;;7.33;6.67;;;;;;;16.81;55.96;98607.47;5074695;28;20215;-69
2023/04/14 07:15:01;;;;;;;11.83;5.63;;;;;;;16.89;55.68;98605.13;5074265;28;20195;-69
2023/04/14 07:17:29;;;;;;;5.67;5.23;;;;;;;17.02;55.45;98603.88;5072974;28;20239;-68
2023/04/14 07:19:55;;;;;;;6.23;5.83;;;;;;;16.43;58.07;98596.97;5073983;28;20679;-68
2023/04/14 07:22:22;;;;;;;6.17;5.73;;;;;;;16.51;57.26;98589.28;5072730;28;20294;-68
2023/04/14 07:24:50;;;;;;;6.80;5.60;;;;;;;16.61;57.50;98583.19;5074170;28;20604;-68
2023/04/14 07:27:18;;;;;;;8.10;7.40;;;;;;;16.72;57.42;98592.91;5073800;28;20207;-68
2023/04/14 07:29:45;;;;;;;6.67;6.20;;;;;;;16.52;58.14;98579.34;5073190;28;20282;-68
2023/04/14 07:32:15;;;;;;;6.63;6.00;;;;;;;16.27;59.78;98576.41;5073851;28;20376;-68
2023/04/14 07:34:44;;;;;;;8.13;6.90;;;;;;;16.52;59.06;98584.72;5073701;28;20275;-68
2023/04/14 07:37:11;;;;;;;8.50;6.30;;;;;;;16.52;58.90;98579.34;5074409;28;20642;-68
2023/04/14 07:39:39;;;;;;;6.60;6.20;;;;;;;16.50;59.21;98568.09;5073951;28;20661;-68
2023/04/14 07:42:06;;;;;;;7.30;6.80;;;;;;;16.24;59.85;98547.44;5074421;28;20192;-69
2023/04/14 07:44:36;;;;;;;7.27;6.57;;;;;;;16.43;60.08;98570.97;5074484;28;20207;-68
2023/04/14 07:47:03;;;;;;;8.77;6.70;;;;;;;16.41;60.20;98575.00;5073764;28;20736;-69
2023/04/14 07:49:34;;;;;;;13.70;7.90;;;;;;;16.06;61.57;98562.03;5073467;28;20270;-68
2023/04/14 07:52:05;;;;;;;17.43;8.33;;;;;;;15.65;63.60;98552.75;5056117;28;20200;-68
2023/04/14 07:54:31;;;;;;;9.03;6.83;;;;;;;15.68;63.98;98552.28;5073549;28;20196;-68
2023/04/14 07:57:01;;;;;;;9.67;8.83;;;;;;;15.66;63.77;98533.00;5073810;28;20196;-68
2023/04/14 07:59:28;;;;;;;14.33;8.93;;;;;;;15.55;64.99;98525.09;5074578;28;20195;-68
2023/04/14 08:01:59;;;;;;;9.80;7.70;;;;;;;15.69;64.65;98515.59;5073323;28;20645;-68
2023/04/14 08:04:26;;;;;;;10.73;8.37;;;;;;;15.68;64.64;98512.13;5073462;28;20654;-68
2023/04/14 08:06:54;;;;;;;13.07;8.17;;;;;;;15.59;65.51;98505.59;5073285;28;20265;-68
2023/04/14 08:09:22;;;;;;;12.33;7.80;;;;;;;15.80;65.21;98512.78;5072231;28;20302;-68
2023/04/14 08:11:50;;;;;;;8.43;7.63;;;;;;;15.83;65.09;98520.31;5073848;28;20286;-69
2023/04/14 08:14:17;;;;;;;8.10;7.40;;;;;;;15.88;64.86;98518.75;5073022;28;20203;-68
2023/04/14 08:16:47;;;;;;;9.20;8.40;;;;;;;15.78;65.23;98525.63;5073403;28;20766;-68
2023/04/14 08:19:14;;;;;;;8.77;7.87;;;;;;;15.84;65.50;98526.47;5071679;28;20208;-68
2023/04/14 08:21:41;;;;;;;13.00;8.17;;;;;;;16.00;64.83;98525.53;5073358;28;20677;-68
2023/04/14 08:24:13;;;;;;;11.37;8.30;;;;;;;16.11;64.42;98545.19;5071763;28;20231;-68
2023/04/14 08:26:40;;;;;;;8.77;7.97;;;;;;;16.26;64.12;98535.44;5073676;28;20290;-67
2023/04/14 08:29:07;;;;;;;9.23;7.37;;;;;;;16.53;63.75;98543.44;5073490;28;20211;-67
2023/04/14 08:31:34;;;;;;;8.50;7.77;;;;;;;16.75;62.80;98557.53;5072101;28;20203;-67
2023/04/14 08:34:02;;;;;;;8.80;7.43;;;;;;;16.83;62.32;98543.66;5073233;28;20204;-68
2023/04/14 08:36:30;;;;;;;8.67;7.33;;;;;;;17.14;62.11;98558.84;5072877;28;20236;-68
2023/04/14 08:39:01;;;;;;;12.33;8.07;;;;;;;17.31;61.19;98546.84;5072990;28;20614;-68
2023/04/14 08:41:34;;;;;;;8.00;7.20;;;;;;;17.41;60.57;98562.22;5073821;28;20185;-68
2023/04/14 08:44:01;;;;;;;9.83;7.97;;;;;;;17.49;60.73;98559.84;5071781;28;20206;-69
2023/04/14 08:46:28;;;;;;;9.37;8.40;;;;;;;17.51;60.38;98546.19;5071319;28;20283;-69
2023/04/14 08:49:06;;;;;;;11.40;7.97;;;;;;;17.89;60.49;98541.16;5072974;28;20233;-69
2023/04/14 08:51:36;;;;;;;8.23;7.53;;;;;;;18.11;59.36;98531.00;5071994;28;20290;-69
2023/04/14 08:54:05;;;;;;;10.93;8.03;;;;;;;18.58;58.39;98546.91;5072886;28;20288;-70
2023/04/14 08:56:40;;;;;;;10.90;7.43;;;;;;;19.17;56.41;98556.75;5073759;28;20587;-71
2023/04/14 08:59:09;;;;;;;8.87;6.83;;;;;;;19.69;53.89;98542.81;5072866;28;20195;-70
2023/04/14 09:01:39;;;;;;;7.97;7.17;;;;;;;20.15;53.58;98536.09;5071895;28;20189;-70
2023/04/14 09:04:08;;;;;;;12.40;6.83;;;;;;;20.52;52.41;98549.81;5073633;28;20527;-71
2023/04/14 09:06:37;;;;;;;8.07;7.27;;;;;;;20.76;51.24;98531.81;5055698;28;20207;-70
2023/04/14 09:09:06;;;;;;;8.07;7.27;;;;;;;20.85;51.30;98521.97;5071035;28;20226;-71
2023/04/14 09:11:36;;;;;;;10.70;7.63;;;;;;;20.94;51.04;98525.69;5072188;28;20290;-70
2023/04/14 09:14:04;;;;;;;7.87;7.17;;;;;;;21.12;50.79;98524.97;5072552;28;20661;-71
2023/04/14 09:16:32;;;;;;;13.13;7.43;;;;;;;21.22;51.26;98513.22;5072196;28;20200;-71
2023/04/14 09:18:59;;;;;;;11.43;7.37;;;;;;;21.36;50.99;98514.94;5070624;28;20200;-71
2023/04/14 09:21:27;;;;;;;15.33;7.67;;;;;;;21.48;50.63;98523.44;5072226;28;20195;-71
2023/04/14 09:23:54;;;;;;;10.70;7.10;;;;;;;21.83;49.63;98512.19;5070973;28;20200;-71
2023/04/14 09:26:21;;;;;;;7.93;7.13;;;;;;;22.21;48.57;98505.66;5071998;28;20215;-70
2023/04/14 09:28:51;;;;;;;10.47;7.57;;;;;;;22.60;47.93;98500.72;5071409;28;20228;-71
2023/04/14 09:31:20;;;;;;;9.03;7.50;;;;;;;22.93;46.77;98491.44;5072130;28;20231;-70
2023/04/14 09:33:49;;;;;;;7.70;6.97;;;;;;;22.99;45.96;98473.19;5072319;28;20203;-71
2023/04/14 09:36:20;;;;;;;9.50;7.13;;;;;;;23.05;46.93;98467.34;5070278;28;20231;-70
2023/04/14 09:38:48;;;;;;;7.97;7.17;;;;;;;23.18;46.21;98453.00;5071872;28;20654;-70
2023/04/14 09:41:20;;;;;;;10.00;7.37;;;;;;;23.03;46.60;98438.97;5071955;28;20279;-70
2023/04/14 09:43:51;;;;;;;8.57;7.77;;;;;;;23.12;46.98;98445.28;5070720;28;20201;-70
2023/04/14 09:46:19;;;;;;;8.57;7.20;;;;;;;23.08;47.67;98439.63;5072188;28;20201;-70
2023/04/14 09:48:54;;;;;;;8.37;7.70;;;;;;;23.05;47.82;98450.28;5071644;28;20227;-70
2023/04/14 09:51:28;;;;;;;7.80;7.03;;;;;;;23.23;47.07;98430.44;5070771;28;20203;-70
2023/04/14 09:54:01;;;;;;;11.67;7.10;;;;;;;23.52;46.96;98433.59;5071825;28;20214;-70
2023/04/14 09:56:29;;;;;;;8.47;7.77;;;;;;;23.56;46.86;98402.84;5070618;28;20200;-70
2023/04/14 09:59:00;;;;;;;9.90;7.10;;;;;;;23.82;46.49;98420.16;5070642;28;20192;-70
2023/04/14 10:01:30;;;;;;;8.70;7.90;;;;;;;24.06;46.25;98423.38;5072085;28;20668;-70
2023/04/14 10:04:00;;;;;;;6.67;6.07;;;;;;;24.11;46.00;98428.69;5073055;28;20197;-70
2023/04/14 10:06:30;;;;;;;7.10;6.30;;;;;;;24.15;45.77;98432.38;5071700;28;20333;-70
2023/04/14 10:08:57;;;;;;;11.13;7.37;;;;;;;24.21;46.01;98423.00;5071712;28;20252;-70
2023/04/14 10:11:26;;;;;;;6.97;6.30;;;;;;;23.96;46.19;98422.81;5070533;28;20207;-71
2023/04/14 10:13:55;;;;;;;7.83;7.17;;;;;;;23.61;47.78;98405.44;5072928;28;20237;-71
2023/04/14 10:16:24;;;;;;;11.97;7.50;;;;;;;23.40;49.00;98411.66;5058063;28;20259;-71
2023/04/14 10:18:52;;;;;;;7.50;6.90;;;;;;;23.41;48.92;98424.91;5075546;28;20293;-71
2023/04/14 10:21:21;;;;;;;10.63;7.27;;;;;;;23.26;49.23;98417.09;5075473;28;20739;-71
2023/04/14 10:23:48;;;;;;;10.60;7.97;;;;;;;23.17;49.75;98402.63;5075867;28;20725;-71
2023/04/14 10:26:16;;;;;;;8.87;7.30;;;;;;;23.38;49.94;98413.84;5075758;28;20204;-71
2023/04/14 10:28:45;;;;;;;10.50;7.10;;;;;;;23.40;49.57;98409.72;5074620;28;20319;-71
2023/04/14 10:31:15;;;;;;;8.87;6.83;;;;;;;23.47;49.05;98420.13;5075723;28;20194;-71
2023/04/14 10:33:44;;;;;;;8.43;6.40;;;;;;;23.52;48.95;98420.06;5075632;28;20197;-72
2023/04/14 10:36:13;;;;;;;5.93;5.47;;;;;;;23.28;48.78;98390.47;5075420;28;20288;-72
2023/04/14 10:38:44;;;;;;;8.17;6.93;;;;;;;23.39;48.32;98391.84;5075300;28;20297;-71
2023/04/14 10:41:12;;;;;;;7.00;6.43;;;;;;;23.30;48.48;98399.13;5073966;28;20231;-71
2023/04/14 10:43:40;;;;;;;6.87;6.17;;;;;;;23.60;47.37;98393.00;5074995;28;20612;-71
2023/04/14 10:46:08;;;;;;;5.77;5.13;;;;;;;23.88;46.41;98421.63;5075713;28;20289;-70
2023/04/14 10:48:41;;;;;;;6.83;5.63;;;;;;;24.16;46.06;98419.59;5075320;28;20248;-71
2023/04/14 10:51:20;;;;;;;7.97;6.13;;;;;;;24.30;45.83;98410.25;5075239;28;20187;-71
2023/04/14 10:53:54;;;;;;;8.87;5.87;;;;;;;24.45;45.26;98418.03;5075451;28;20202;-71
2023/04/14 10:56:23;;;;;;;7.60;5.13;;;;;;;24.53;44.02;98428.13;5075709;28;20199;-71
2023/04/14 10:58:57;;;;;;;7.83;5.10;;;;;;;24.59;43.25;98450.53;5075065;28;20736;-71
2023/04/14 11:01:29;;;;;;;5.53;4.70;;;;;;;24.68;42.23;98446.78;5074570;28;20205;-71
2023/04/14 11:03:56;;;;;;;5.77;5.10;;;;;;;24.46;42.28;98399.84;5075247;28;20183;-70
2023/04/14 11:06:54;;;;;;;7.93;4.97;;;;;;;24.50;42.40;98412.47;5074695;28;20221;-71
2023/04/14 11:09:37;;;;;;;5.37;4.97;;;;;;;24.40;42.27;98390.22;5057455;28;20223;-70
2023/04/14 11:12:23;;;;;;;5.80;5.20;;;;;;;24.37;42.68;98397.06;5075505;28;20205;-70
2023/04/14 11:14:55;;;;;;;6.43;5.50;;;;;;;24.50;41.18;98409.75;5074634;28;20282;-70
2023/04/14 11:17:22;;;;;;;6.90;6.40;;;;;;;24.49;41.70;98381.00;5074768;28;20211;-70
2023/04/14 11:19:53;;;;;;;6.20;5.77;;;;;;;24.47;41.94;98372.34;5074630;28;20281;-70
2023/04/14 11:22:40;;;;;;;7.47;5.80;;;;;;;24.42;41.67;98350.78;5075515;28;20261;-70
2023/04/14 11:25:11;;;;;;;9.50;6.43;;;;;;;24.38;40.59;98371.50;5074186;28;20198;-71
2023/04/14 11:27:42;;;;;;;6.77;6.13;;;;;;;24.48;40.66;98400.31;5057480;28;20198;-70
2023/04/14 11:30:14;;;;;;;9.83;5.73;;;;;;;24.34;40.98;98364.31;5074879;28;20589;-71
2023/04/14 11:32:46;;;;;;;8.03;5.50;;;;;;;24.43;41.42;98346.16;5073900;28;20221;-71
2023/04/14 11:35:17;;;;;;;8.97;5.73;;;;;;;24.41;40.90;98343.75;5073877;28;20288;-71
2023/04/14 11:37:46;;;;;;;8.07;5.43;;;;;;;24.32;40.59;98356.50;5073562;28;20204;-71
2023/04/14 11:40:15;;;;;;;6.77;5.30;;;;;;;24.37;40.10;98367.19;5073013;28;20214;-70
2023/04/14 11:42:46;;;;;;;5.43;4.93;;;;;;;24.33;40.79;98347.22;5074168;28;20206;-71